createdAt,value
2019-02-19T00:00:17.662Z,7.00
2019-02-19T00:02:51.187Z,7.00
2019-02-19T00:05:34.155Z,7.10
2019-02-19T00:08:10.287Z,7.00
2019-02-19T00:11:02.569Z,7.00
2019-02-19T00:13:38.268Z,7.00
2019-02-19T00:16:07.372Z,6.90
2019-02-19T00:18:36.334Z,6.90
2019-02-19T00:21:12.832Z,6.80
2019-02-19T00:23:47.859Z,6.80
2019-02-19T00:26:22.286Z,6.80
2019-02-19T00:29:06.386Z,6.80
2019-02-19T00:31:42.646Z,6.80
2019-02-19T00:34:16.867Z,6.80
2019-02-19T00:36:52.129Z,6.80
2019-02-19T00:39:23.351Z,6.80
2019-02-19T00:41:52.527Z,6.70
2019-02-19T00:44:21.489Z,6.70
2019-02-19T00:46:57.418Z,6.70
2019-02-19T00:49:27.865Z,6.70
2019-02-19T00:51:58.991Z,6.70
2019-02-19T00:54:28.919Z,6.80
2019-02-19T00:56:59.014Z,6.80
2019-02-19T00:59:28.184Z,6.80
2019-02-19T01:01:59.320Z,6.80
2019-02-19T01:04:28.323Z,6.80
2019-02-19T01:07:00.319Z,6.80
2019-02-19T01:09:32.322Z,6.70
2019-02-19T01:12:05.952Z,6.70
2019-02-19T01:14:36.398Z,6.70
2019-02-19T01:17:08.052Z,6.70
2019-02-19T01:19:37.667Z,6.70
2019-02-19T01:22:10.198Z,6.70
2019-02-19T01:24:44.717Z,6.70
2019-02-19T01:27:25.891Z,6.70
2019-02-19T01:30:22.032Z,6.70
2019-02-19T01:32:59.465Z,6.70
2019-02-19T01:35:32.015Z,6.70
2019-02-19T01:38:15.474Z,6.70
2019-02-19T01:40:53.323Z,6.50
2019-02-19T01:43:18.263Z,6.50
2019-02-19T01:45:47.198Z,6.50
2019-02-19T01:48:16.595Z,6.50
2019-02-19T01:50:45.543Z,6.50
2019-02-19T01:53:15.629Z,6.50
2019-02-19T01:55:45.879Z,6.50
2019-02-19T01:58:15.919Z,6.40
2019-02-19T02:00:44.873Z,6.40
2019-02-19T02:03:15.580Z,6.40
2019-02-19T02:05:45.714Z,6.40
2019-02-19T02:08:17.929Z,6.40
2019-02-19T02:10:49.655Z,6.40
2019-02-19T02:13:20.607Z,6.40
2019-02-19T02:15:49.608Z,6.40
2019-02-19T02:18:18.623Z,6.30
2019-02-19T02:20:47.579Z,6.30
2019-02-19T02:23:18.816Z,6.30
2019-02-19T02:25:47.891Z,6.30
2019-02-19T02:28:17.907Z,6.30
2019-02-19T02:30:49.807Z,6.40
2019-02-19T02:33:23.188Z,6.50
2019-02-19T02:35:52.204Z,6.60
2019-02-19T02:38:23.319Z,6.70
2019-02-19T02:40:52.413Z,6.80
2019-02-19T02:43:26.769Z,6.90
2019-02-19T02:45:56.231Z,6.90
2019-02-19T02:48:25.155Z,7.00
2019-02-19T02:50:54.833Z,7.00
2019-02-19T02:53:23.907Z,7.10
2019-02-19T02:55:52.852Z,7.20
2019-02-19T02:58:22.040Z,7.00
2019-02-19T03:00:51.128Z,7.00
2019-02-19T03:03:20.081Z,7.10
2019-02-19T03:06:01.527Z,7.20
2019-02-19T03:08:31.792Z,7.40
2019-02-19T03:11:00.738Z,7.30
2019-02-19T03:13:30.052Z,7.30
2019-02-19T03:16:02.418Z,7.40
2019-02-19T03:18:29.666Z,7.40
2019-02-19T03:20:59.181Z,7.30
2019-02-19T03:23:30.141Z,7.40
2019-02-19T03:25:59.639Z,7.50
2019-02-19T03:28:36.424Z,7.40
2019-02-19T03:31:02.732Z,7.50
2019-02-19T03:33:31.913Z,7.30
2019-02-19T03:36:06.713Z,7.30
2019-02-19T03:38:43.412Z,7.40
2019-02-19T03:41:19.987Z,7.50
2019-02-19T03:43:53.523Z,7.60
2019-02-19T03:46:22.759Z,7.70
2019-02-19T03:48:51.717Z,7.60
2019-02-19T03:51:20.636Z,7.60
2019-02-19T03:53:50.124Z,7.60
2019-02-19T03:56:24.000Z,7.70
2019-02-19T03:59:06.824Z,7.70
2019-02-19T04:01:37.729Z,7.80
2019-02-19T04:04:13.268Z,7.90
2019-02-19T04:06:58.545Z,7.80
2019-02-19T04:12:27.557Z,7.80
2019-02-19T04:15:15.322Z,7.80
2019-02-19T04:17:43.872Z,7.70
2019-02-19T04:20:15.092Z,7.90
2019-02-19T04:22:44.034Z,7.90
2019-02-19T04:25:13.183Z,7.80
2019-02-19T04:27:42.249Z,7.90
2019-02-19T04:30:11.297Z,7.90
2019-02-19T04:32:40.495Z,7.90
2019-02-19T04:35:09.491Z,7.90
2019-02-19T04:37:50.141Z,7.80
2019-02-19T04:40:20.666Z,7.70
2019-02-19T04:42:49.645Z,7.60
2019-02-19T04:45:21.341Z,7.50
2019-02-19T04:47:50.739Z,7.40
2019-02-19T04:50:19.842Z,7.40
2019-02-19T04:52:51.419Z,7.30
2019-02-19T04:55:21.991Z,7.20
2019-02-19T04:57:50.943Z,7.10
2019-02-19T05:00:21.373Z,7.10
2019-02-19T05:02:51.628Z,7.00
2019-02-19T05:05:20.734Z,7.10
2019-02-19T05:07:52.043Z,7.10
2019-02-19T05:10:21.201Z,6.90
2019-02-19T05:12:50.151Z,7.00
2019-02-19T05:15:20.661Z,6.90
2019-02-19T05:17:50.235Z,6.80
2019-02-19T05:20:20.743Z,6.90
2019-02-19T05:22:49.739Z,6.90
2019-02-19T05:25:18.729Z,6.90
2019-02-19T05:27:49.854Z,6.90
2019-02-19T05:30:18.581Z,7.00
2019-02-19T05:32:48.059Z,6.90
2019-02-19T05:35:17.772Z,6.80
2019-02-19T05:37:49.380Z,6.80
2019-02-19T05:40:19.847Z,6.80
2019-02-19T05:42:48.893Z,6.70
2019-02-19T05:45:21.340Z,6.80
2019-02-19T05:47:54.855Z,6.70
2019-02-19T05:50:23.535Z,6.70
2019-02-19T05:52:55.705Z,6.70
2019-02-19T05:55:29.212Z,6.70
2019-02-19T05:58:19.095Z,6.60
2019-02-19T06:00:43.675Z,6.60
2019-02-19T06:03:19.254Z,6.70
2019-02-19T06:05:51.130Z,6.70
2019-02-19T06:08:26.867Z,6.60
2019-02-19T06:11:01.749Z,6.70
2019-02-19T06:13:30.500Z,6.70
2019-02-19T06:16:02.050Z,6.70
2019-02-19T06:18:31.087Z,6.70
2019-02-19T06:21:06.004Z,6.80
2019-02-19T06:23:37.716Z,6.80
2019-02-19T06:26:08.236Z,6.80
2019-02-19T06:28:39.913Z,6.80
2019-02-19T06:31:12.086Z,6.80
2019-02-19T06:33:59.671Z,6.80
2019-02-19T06:36:31.552Z,6.90
2019-02-19T06:42:13.200Z,6.90
2019-02-19T06:44:45.723Z,6.90
2019-02-19T06:47:28.715Z,6.90
2019-02-19T06:50:07.477Z,6.90
2019-02-19T06:52:41.450Z,7.00
2019-02-19T06:55:15.211Z,6.90
2019-02-19T06:57:53.199Z,6.90
2019-02-19T07:00:31.941Z,6.90
2019-02-19T07:03:21.219Z,6.90
2019-02-19T07:05:56.228Z,6.90
2019-02-19T07:08:36.336Z,6.90
2019-02-19T07:11:05.487Z,6.80
2019-02-19T07:13:34.470Z,6.90
2019-02-19T07:16:03.996Z,7.00
2019-02-19T07:18:33.245Z,7.00
2019-02-19T07:21:03.675Z,7.00
2019-02-19T07:23:32.684Z,7.00
2019-02-19T07:26:03.439Z,7.10
2019-02-19T07:28:33.856Z,7.20
2019-02-19T07:31:02.808Z,7.20
2019-02-19T07:33:31.883Z,7.20
2019-02-19T07:36:01.601Z,7.10
2019-02-19T07:38:36.578Z,7.10
2019-02-19T07:41:07.120Z,7.20
2019-02-19T07:43:55.176Z,7.20
2019-02-19T07:46:25.820Z,7.30
2019-02-19T07:48:55.080Z,7.40
2019-02-19T07:51:25.620Z,7.20
2019-02-19T07:53:56.932Z,7.30
2019-02-19T07:56:33.359Z,7.20
2019-02-19T07:59:03.950Z,7.10
2019-02-19T08:01:34.913Z,7.10
2019-02-19T08:04:07.129Z,7.00
2019-02-19T08:06:37.683Z,7.00
2019-02-19T08:09:12.269Z,7.20
2019-02-19T08:11:45.576Z,7.20
2019-02-19T08:14:14.543Z,7.40
2019-02-19T08:16:49.509Z,7.30
2019-02-19T08:19:21.202Z,7.30
2019-02-19T08:22:01.475Z,7.20
2019-02-19T08:24:30.576Z,7.20
2019-02-19T08:26:59.519Z,7.50
2019-02-19T08:29:29.503Z,7.60
2019-02-19T08:31:58.854Z,7.50
2019-02-19T08:34:29.766Z,7.40
2019-02-19T08:37:11.884Z,7.40
2019-02-19T08:39:35.311Z,7.40
2019-02-19T08:42:13.060Z,7.40
2019-02-19T08:47:31.371Z,7.30
2019-02-19T08:50:02.797Z,7.30
2019-02-19T08:52:31.751Z,7.30
2019-02-19T08:55:00.715Z,7.30
2019-02-19T08:57:32.137Z,7.40
2019-02-19T09:00:03.158Z,7.40
2019-02-19T09:02:34.072Z,7.30
2019-02-19T09:05:04.863Z,7.50
2019-02-19T09:07:39.485Z,7.50
2019-02-19T09:10:15.720Z,7.70
2019-02-19T09:12:51.112Z,7.80
2019-02-19T09:15:22.184Z,7.90
2019-02-19T09:17:53.153Z,7.90
2019-02-19T09:20:22.175Z,7.80
2019-02-19T09:22:54.145Z,7.90
2019-02-19T09:25:23.199Z,8.00
2019-02-19T09:27:56.676Z,7.90
2019-02-19T09:30:29.844Z,8.00
2019-02-19T09:32:58.861Z,7.80
2019-02-19T09:35:29.491Z,7.90
2019-02-19T09:38:00.945Z,8.00
2019-02-19T09:40:29.967Z,8.10
2019-02-19T09:43:04.656Z,8.20
2019-02-19T09:45:36.895Z,8.10
2019-02-19T09:48:08.337Z,8.20
2019-02-19T09:50:41.392Z,8.30
2019-02-19T09:53:10.700Z,8.20
2019-02-19T09:55:39.682Z,8.20
2019-02-19T09:58:08.754Z,8.30
2019-02-19T10:00:41.668Z,8.10
2019-02-19T10:03:16.239Z,8.40
2019-02-19T10:05:48.176Z,8.50
2019-02-19T10:08:25.643Z,8.50
2019-02-19T10:10:54.399Z,8.50
2019-02-19T10:13:28.874Z,8.60
2019-02-19T10:16:03.485Z,8.60
2019-02-19T10:18:37.167Z,8.70
2019-02-19T10:21:06.340Z,8.60
2019-02-19T10:23:35.280Z,8.80
2019-02-19T10:26:06.525Z,8.80
2019-02-19T10:28:35.524Z,8.80
2019-02-19T10:31:05.976Z,8.80
2019-02-19T10:33:35.193Z,8.80
2019-02-19T10:36:04.571Z,8.70
2019-02-19T10:38:36.472Z,8.60
2019-02-19T10:41:07.562Z,8.60
2019-02-19T10:43:38.003Z,8.40
2019-02-19T10:46:07.121Z,8.30
2019-02-19T10:48:37.546Z,8.50
2019-02-19T10:51:10.528Z,8.60
2019-02-19T10:56:20.536Z,8.80
2019-02-19T10:58:49.500Z,8.60
2019-02-19T11:04:09.616Z,9.20
2019-02-19T11:06:40.918Z,9.50
2019-02-19T11:09:10.026Z,9.30
2019-02-19T11:11:39.064Z,9.00
2019-02-19T11:14:18.684Z,9.10
2019-02-19T11:16:47.719Z,9.00
2019-02-19T11:19:16.679Z,9.00
2019-02-19T11:22:15.119Z,8.90
2019-02-19T11:24:46.515Z,8.80
2019-02-19T11:27:32.399Z,8.90
2019-02-19T11:30:02.784Z,9.10
2019-02-19T11:32:36.343Z,9.10
2019-02-19T11:35:13.592Z,9.00
2019-02-19T11:37:41.944Z,8.90
2019-02-19T11:40:14.302Z,9.10
2019-02-19T11:42:43.358Z,8.80
2019-02-19T11:45:15.113Z,8.90
2019-02-19T11:47:44.321Z,8.90
2019-02-19T11:50:14.489Z,8.80
2019-02-19T11:52:43.706Z,8.70
2019-02-19T11:55:17.732Z,8.70
2019-02-19T11:57:51.127Z,8.70
2019-02-19T12:00:34.038Z,8.70
2019-02-19T12:03:05.421Z,8.70
2019-02-19T12:05:34.623Z,8.70
2019-02-19T12:08:05.006Z,8.70
2019-02-19T12:10:34.229Z,8.70
2019-02-19T12:13:04.993Z,8.80
2019-02-19T12:15:35.675Z,8.80
2019-02-19T12:18:08.369Z,8.80
2019-02-19T12:20:39.072Z,8.50
2019-02-19T12:23:08.020Z,8.40
2019-02-19T12:25:37.225Z,8.30
2019-02-19T12:30:55.583Z,8.60
2019-02-19T12:33:24.645Z,8.50
2019-02-19T12:35:55.980Z,8.60
2019-02-19T12:38:33.708Z,8.60
2019-02-19T12:41:03.863Z,8.80
2019-02-19T12:43:33.079Z,8.80
2019-02-19T12:46:02.036Z,8.70
2019-02-19T12:48:31.227Z,8.50
2019-02-19T12:51:02.324Z,8.30
2019-02-19T12:53:31.368Z,8.40
2019-02-19T12:56:00.348Z,8.40
2019-02-19T12:58:29.492Z,8.40
2019-02-19T13:00:58.800Z,8.20
2019-02-19T13:03:27.871Z,8.10
2019-02-19T13:05:57.037Z,7.90
2019-02-19T13:08:26.041Z,7.90
2019-02-19T13:10:56.174Z,7.80
2019-02-19T13:13:25.695Z,7.70
2019-02-19T13:15:54.688Z,7.70
2019-02-19T13:18:23.640Z,7.60
2019-02-19T13:20:54.349Z,7.60
2019-02-19T13:23:23.288Z,7.50
2019-02-19T13:25:52.266Z,7.50
2019-02-19T13:28:21.300Z,7.60
2019-02-19T13:30:50.244Z,7.60
2019-02-19T13:33:19.198Z,7.60
2019-02-19T13:35:55.538Z,7.70
2019-02-19T13:38:24.602Z,7.60
2019-02-19T13:40:54.628Z,7.60
2019-02-19T13:43:26.407Z,7.60
2019-02-19T13:46:13.231Z,7.60
2019-02-19T13:48:51.901Z,7.60
2019-02-19T13:51:31.450Z,7.50
2019-02-19T13:54:15.723Z,7.50
2019-02-19T13:56:57.166Z,7.60
2019-02-19T13:59:37.165Z,7.70
2019-02-19T14:02:21.992Z,7.60
2019-02-19T14:04:51.174Z,7.60
2019-02-19T14:07:20.138Z,7.70
2019-02-19T14:09:49.086Z,7.70
2019-02-19T14:12:20.976Z,7.60
2019-02-19T14:15:07.588Z,7.60
2019-02-19T14:17:54.446Z,7.60
2019-02-19T14:24:31.718Z,7.50
2019-02-19T14:26:42.126Z,7.40
2019-02-19T14:29:35.803Z,7.40
2019-02-19T14:32:11.864Z,7.40
2019-02-19T14:34:52.476Z,7.30
2019-02-19T14:37:23.155Z,7.50
2019-02-19T14:39:53.773Z,7.60
2019-02-19T14:42:41.576Z,7.70
2019-02-19T14:45:30.872Z,7.60
2019-02-19T14:48:16.154Z,7.60
2019-02-19T14:50:47.306Z,7.60
2019-02-19T14:53:34.312Z,7.60
2019-02-19T14:56:14.675Z,7.60
2019-02-19T14:58:45.351Z,7.50
2019-02-19T15:01:34.012Z,7.50
2019-02-19T15:04:17.247Z,7.40
2019-02-19T15:06:53.033Z,7.40
2019-02-19T15:09:23.638Z,7.40
2019-02-19T15:11:57.288Z,7.30
2019-02-19T15:14:31.791Z,7.20
2019-02-19T15:17:05.954Z,7.20
2019-02-19T15:19:39.059Z,7.20
2019-02-19T15:22:23.107Z,7.30
2019-02-19T15:25:08.375Z,7.30
2019-02-19T15:27:52.422Z,7.20
2019-02-19T15:30:30.346Z,7.10
2019-02-19T15:32:58.677Z,7.10
2019-02-19T15:36:06.893Z,7.20
2019-02-19T15:38:40.592Z,7.20
2019-02-19T15:42:35.988Z,7.20
2019-02-19T15:44:16.279Z,7.30
2019-02-19T15:47:07.787Z,7.30
2019-02-19T15:49:59.252Z,7.20
2019-02-19T15:52:51.777Z,7.30
2019-02-19T15:55:32.641Z,7.30
2019-02-19T15:58:27.054Z,7.30
2019-02-19T16:01:14.505Z,7.40
2019-02-19T16:03:47.862Z,7.40
2019-02-19T16:06:23.102Z,7.40
2019-02-19T16:09:10.302Z,7.50
2019-02-19T16:11:49.658Z,7.50
2019-02-19T16:14:34.060Z,7.50
2019-02-19T16:17:06.907Z,7.50
2019-02-19T16:20:01.696Z,7.50
2019-02-19T16:22:40.617Z,7.50
2019-02-19T16:25:22.838Z,7.50
2019-02-19T16:27:54.771Z,7.50
2019-02-19T16:30:27.194Z,7.50
2019-02-19T16:33:33.517Z,7.50
2019-02-19T16:36:24.477Z,7.50
2019-02-19T16:39:35.072Z,7.50
2019-02-19T16:42:05.006Z,7.50
2019-02-19T16:45:17.585Z,7.50
2019-02-19T16:51:46.697Z,7.50
2019-02-19T17:00:15.268Z,7.50
2019-02-19T17:02:48.567Z,7.50
2019-02-19T17:05:37.949Z,7.40
2019-02-19T17:10:59.364Z,7.40
2019-02-19T17:13:38.749Z,7.50
2019-02-19T17:16:27.255Z,7.50
2019-02-19T17:19:10.887Z,7.50
2019-02-19T17:21:41.914Z,7.50
2019-02-19T17:24:19.082Z,7.50
2019-02-19T17:26:54.540Z,7.50
2019-02-19T17:29:33.670Z,7.50
2019-02-19T17:32:06.995Z,7.40
2019-02-19T17:34:47.617Z,7.50
2019-02-19T17:37:24.138Z,7.50
2019-02-19T17:39:55.362Z,7.50
2019-02-19T17:42:31.135Z,7.50
2019-02-19T17:45:04.351Z,7.40
2019-02-19T17:47:44.560Z,7.50
2019-02-19T17:50:38.475Z,7.40
2019-02-19T17:56:21.517Z,7.40
2019-02-19T17:59:02.598Z,7.50
2019-02-19T18:01:35.814Z,7.40
2019-02-19T18:04:24.727Z,7.50
2019-02-19T18:06:55.438Z,7.60
2019-02-19T18:09:46.425Z,7.50
2019-02-19T18:12:58.314Z,7.50
2019-02-19T18:15:14.243Z,7.50
2019-02-19T18:18:01.033Z,7.50
2019-02-19T18:20:47.127Z,7.50
2019-02-19T18:23:12.530Z,7.60
2019-02-19T18:25:46.998Z,7.60
2019-02-19T18:28:23.733Z,7.60
2019-02-19T18:33:47.323Z,7.50
2019-02-19T18:36:19.983Z,7.50
2019-02-19T18:44:33.351Z,7.50
2019-02-19T18:54:30.976Z,7.50
2019-02-19T18:55:37.600Z,7.50
2019-02-19T18:58:11.938Z,7.50
2019-02-19T19:00:45.989Z,7.60
2019-02-19T19:03:19.387Z,7.50
2019-02-19T19:05:53.081Z,7.60
2019-02-19T19:08:31.067Z,7.60
2019-02-19T19:10:59.657Z,7.50
2019-02-19T19:19:12.735Z,7.50
2019-02-19T19:21:45.554Z,7.50
2019-02-19T19:30:04.550Z,7.50
2019-02-19T19:35:25.481Z,7.50
2019-02-19T19:40:49.401Z,7.60
2019-02-19T19:43:24.564Z,7.60
2019-02-19T19:46:04.810Z,7.60
2019-02-19T19:48:46.122Z,7.50
2019-02-19T19:54:44.335Z,7.60
2019-02-19T20:00:27.065Z,7.50
2019-02-19T20:02:57.367Z,7.50
2019-02-19T20:05:32.432Z,7.40
2019-02-19T20:08:19.054Z,7.40
2019-02-19T20:17:45.784Z,7.30
2019-02-19T20:19:51.219Z,7.40
2019-02-19T20:22:30.357Z,7.30
2019-02-19T20:28:41.768Z,7.40
2019-02-19T20:31:34.390Z,7.30
2019-02-19T20:37:16.831Z,7.20
2019-02-19T20:39:47.210Z,7.20
2019-02-19T20:42:30.998Z,7.20
2019-02-19T20:45:16.116Z,7.20
2019-02-19T20:59:40.647Z,7.10
2019-02-19T21:05:06.458Z,7.10
2019-02-19T21:07:42.179Z,7.10
2019-02-19T21:13:11.928Z,7.10
2019-02-19T21:18:18.754Z,7.10
2019-02-19T21:29:36.558Z,7.10
2019-02-19T21:32:10.030Z,7.10
2019-02-19T21:34:52.738Z,7.10
2019-02-19T21:43:56.269Z,7.00
2019-02-19T21:52:16.890Z,7.00
2019-02-19T21:57:32.646Z,7.10
2019-02-19T22:00:21.467Z,7.20
2019-02-19T22:02:31.116Z,7.30
2019-02-19T22:05:06.226Z,7.30
2019-02-19T22:07:40.668Z,7.30
2019-02-19T22:14:01.672Z,7.30
2019-02-19T22:15:31.184Z,7.30
2019-02-19T22:18:04.308Z,7.40
2019-02-19T22:20:51.451Z,7.30
2019-02-19T22:23:25.638Z,7.20
2019-02-19T22:25:55.831Z,7.20
2019-02-19T22:28:24.802Z,7.20
2019-02-19T22:30:54.056Z,7.30
2019-02-19T22:33:23.340Z,7.40
2019-02-19T22:36:02.182Z,7.40
2019-02-19T22:38:50.761Z,7.30
2019-02-19T22:41:40.940Z,7.20
2019-02-19T22:47:05.598Z,7.20
2019-02-19T22:52:26.883Z,7.40
2019-02-19T22:55:02.003Z,7.40
2019-02-19T22:57:30.992Z,7.40
2019-02-19T23:00:01.162Z,7.30
2019-02-19T23:02:31.919Z,7.30
2019-02-19T23:05:05.233Z,7.30
2019-02-19T23:07:35.983Z,7.30
2019-02-19T23:10:06.698Z,7.40
2019-02-19T23:12:43.425Z,7.30
2019-02-19T23:15:14.192Z,7.30
2019-02-19T23:17:46.262Z,7.30
2019-02-19T23:20:17.306Z,7.30
2019-02-19T23:22:46.591Z,7.40
2019-02-19T23:25:17.932Z,7.30
2019-02-19T23:27:48.512Z,7.20
2019-02-19T23:30:17.622Z,7.10
2019-02-19T23:32:48.289Z,7.10
2019-02-19T23:35:24.967Z,7.10
2019-02-19T23:37:53.912Z,7.10
2019-02-19T23:40:24.342Z,7.10
2019-02-19T23:42:59.247Z,7.20
2019-02-19T23:45:27.288Z,7.20
2019-02-19T23:48:00.349Z,7.20
2019-02-19T23:52:07.620Z,7.20
2019-02-19T23:53:05.713Z,7.20
2019-02-19T23:55:38.987Z,7.20
2019-02-19T23:58:08.063Z,7.20
